Terminal Aerodrome Forecast
Issued by NWS Pueblo, CO

Home | Current Version | Previous Version | Text Only | Print | Product List | Glossary On
Versions: 1 2 3 4 5 6 7 8 9 10 11 12 13 14 15 16 17 18 19 20 21 22 23 24 25 26 27 28 29 30 31 32 33 34 35 36 37 38 39 40 41 42 43 44
000
FTUS45 KPUB 060258 AAE
TAFPUB
TAF AMD
KPUB 060258Z 0603/0624 36013KT P6SM VCSH BKN110 OVC200
     FM060600 36012KT P6SM BKN110 OVC200
     FM061500 02014KT P6SM SCT110 BKN200
     FM062200 09010KT P6SM VCTS SCT100CB BKN200=

USA.gov is the U.S. government's official web portal to all federal, state and local government web resources and services.